If you wish to contribute or participate in the discussions about articles you are invited to join SKYbrary as a registered user

 Actions

Ernesto Cortissoz International Airport

From SKYbrary Wiki

SKBQ
Airport
ICAO: SKBQ – IATA: BAQ
Summary
Name Ernesto Cortissoz International Airport
Region South America and Caribbean
Territory Colombia CO.gif
Location Soledad, Atlantico Department
Serving Barranquilla
Elevation 29.87 m
98 ft29.87 m
Coordinates 10° 53' 11.77" N, 74° 46' 35.13" W
Runways
Designator Length Width Surface ROPS
5/23 3000 m9,842.52 ft
45 m147.638 ft
CON yes/yes


METAR
Observation SKBQ 192200Z 11008KT 9999 SCT012 BKN100 26/24 A2976 NOSIG
Station Barranquilla / Ernestocortissoz
Date/Time 19 September 2019 22:00:00
Wind direction 110°
Wind speed 08 kts
Lowest cloud amount scattered clouds
Temperature 26°C
Dew point 24°C
Humidity 88%
QNH hPa
Weather condition n/a

Ernesto Cortissoz International Airport is an airport serving the area of Barranquilla, the capital city of the Atlántico department in Colombia.

Climatology

Tropical Savanna climate (Köppen climate classification Aw)

Maps

Terrain

Loading map...

Airport Layout

Loading map...


Accidents & Serious Incidents at or in vicinity of SKBQ

None on SKYbrary